Time;durP1;ratioP1;P1;durP2;ratioP2;P2;SDS_P1;SDS_P2;PMS_P1;PMS_P2;Temp;Humidity;BMP_temperature;BMP_pressure;BME280_temperature;BME280_humidity;BME280_pressure;Samples;Min_cycle;Max_cycle;Signal;HPM_P1;HPM_P2
2022/11/15 00:01:14;;;;;;;60.45;30.27;;;;;;;5.97;100.00;100854.00;5034295;28;20025;-79
2022/11/15 00:03:39;;;;;;;60.78;30.92;;;;;;;6.00;100.00;100848.75;5034322;28;20466;-80
2022/11/15 00:06:05;;;;;;;59.10;31.30;;;;;;;5.41;100.00;100747.09;5034369;28;20100;-80
2022/11/15 00:08:32;;;;;;;58.67;30.63;;;;;;;5.96;100.00;100833.56;5049599;28;20037;-80
2022/11/15 00:10:59;;;;;;;58.10;30.65;;;;;;;6.10;100.00;100853.47;5034142;28;20079;-80
2022/11/15 00:13:24;;;;;;;63.58;30.85;;;;;;;6.13;100.00;100848.22;5034639;28;20019;-79
2022/11/15 00:15:50;;;;;;;60.38;30.20;;;;;;;5.92;100.00;100811.53;5034384;28;20104;-80
2022/11/15 00:18:15;;;;;;;63.85;31.42;;;;;;;5.90;100.00;100793.66;5034018;28;20346;-80
2022/11/15 00:20:41;;;;;;;58.38;31.05;;;;;;;6.23;100.00;100841.78;5034200;28;20030;-80
2022/11/15 00:23:07;;;;;;;62.42;30.23;;;;;;;6.25;100.00;100843.34;5033884;28;20026;-80
2022/11/15 00:25:32;;;;;;;62.85;30.73;;;;;;;6.30;100.00;100848.31;5033775;28;20181;-80
2022/11/15 00:27:59;;;;;;;60.15;31.38;;;;;;;6.07;100.00;100800.59;5034107;28;20021;-80
2022/11/15 00:30:25;;;;;;;59.88;29.75;;;;;;;6.36;100.00;100840.31;5034069;28;20119;-81
2022/11/15 00:32:50;;;;;;;63.63;30.60;;;;;;;6.21;100.00;100811.06;5033578;28;20034;-80
2022/11/15 00:35:16;;;;;;;56.63;29.50;;;;;;;6.34;100.00;100819.03;5033891;28;20036;-80
2022/11/15 00:37:41;;;;;;;61.53;29.58;;;;;;;6.29;100.00;100803.88;5033723;28;20460;-80
2022/11/15 00:40:07;;;;;;;51.47;28.98;;;;;;;6.43;100.00;100821.19;5033599;28;20037;-80
2022/11/15 00:42:33;;;;;;;60.80;30.75;;;;;;;6.49;100.00;100826.03;5033463;28;20037;-79
2022/11/15 00:44:58;;;;;;;56.33;30.20;;;;;;;6.43;100.00;100803.22;5033552;28;20354;-80
2022/11/15 00:47:23;;;;;;;55.88;28.55;;;;;;;6.60;100.00;100828.94;5033580;28;20029;-80
2022/11/15 00:49:48;;;;;;;53.47;29.42;;;;;;;6.63;100.00;100822.81;5033731;28;20479;-80
2022/11/15 00:52:14;;;;;;;47.75;27.23;;;;;;;6.67;100.00;100818.38;5033489;28;20561;-80
2022/11/15 00:54:39;;;;;;;51.42;28.92;;;;;;;6.69;100.00;100814.84;5033550;28;20032;-80
2022/11/15 00:57:04;;;;;;;52.33;28.42;;;;;;;6.45;100.00;100767.25;5033173;28;20424;-79
2022/11/15 00:59:30;;;;;;;51.40;29.48;;;;;;;6.76;100.00;100807.69;5033412;28;20025;-80
2022/11/15 01:01:55;;;;;;;50.33;27.17;;;;;;;6.76;100.00;100802.53;5033507;28;20037;-79
2022/11/15 01:04:20;;;;;;;52.55;28.65;;;;;;;6.66;100.00;100791.06;5033282;28;20049;-79
2022/11/15 01:06:46;;;;;;;52.85;28.52;;;;;;;6.81;100.00;100803.19;5033522;28;20361;-80
2022/11/15 01:09:11;;;;;;;52.20;29.15;;;;;;;6.77;100.00;100787.06;5033366;28;20021;-80
2022/11/15 01:11:36;;;;;;;49.28;26.45;;;;;;;6.94;100.00;100808.53;5033390;28;20036;-80
2022/11/15 01:14:02;;;;;;;52.55;27.50;;;;;;;6.97;100.00;100808.38;5033291;28;20104;-80
2022/11/15 01:16:27;;;;;;;49.28;27.95;;;;;;;7.01;100.00;100805.63;5033147;28;20030;-80
2022/11/15 01:18:52;;;;;;;51.15;29.98;;;;;;;6.94;100.00;100783.69;5033190;28;20026;-80
2022/11/15 01:21:19;;;;;;;51.05;27.52;;;;;;;7.00;100.00;100780.03;5033258;28;20061;-80
2022/11/15 01:23:44;;;;;;;49.17;28.83;;;;;;;7.03;100.00;100777.28;5033113;28;20026;-80
2022/11/15 01:26:14;;;;;;;51.33;29.52;;;;;;;7.19;100.00;100796.19;5033274;28;20488;-80
2022/11/15 01:28:41;;;;;;;50.63;28.08;;;;;;;7.12;100.00;100780.25;5032985;28;20493;-79
2022/11/15 01:31:13;;;;;;;53.63;30.77;;;;;;;7.15;100.00;100772.38;5033078;28;20041;-80
2022/11/15 01:33:39;;;;;;;50.70;27.75;;;;;;;7.18;100.00;100756.00;5032664;28;20539;-80
2022/11/15 01:36:06;;;;;;;52.83;29.27;;;;;;;7.36;100.00;100785.06;5033230;28;20029;-80
2022/11/15 01:38:31;;;;;;;52.30;27.13;;;;;;;7.38;100.00;100783.25;5032773;28;20066;-80
2022/11/15 01:40:57;;;;;;;48.70;27.98;;;;;;;7.41;100.00;100777.97;5032901;28;20029;-80
2022/11/15 01:43:34;;;;;;;51.47;27.80;;;;;;;7.39;100.00;100784.91;5032876;28;20031;-80
2022/11/15 01:46:05;;;;;;;53.58;28.90;;;;;;;7.43;100.00;100782.09;5033066;28;20052;-80
2022/11/15 01:48:33;;;;;;;55.17;28.40;;;;;;;7.36;100.00;100773.03;5032486;28;20543;-80
2022/11/15 01:51:02;;;;;;;53.33;28.55;;;;;;;7.33;100.00;100759.53;5033065;28;20030;-80
2022/11/15 01:53:29;;;;;;;52.88;29.30;;;;;;;7.45;100.00;100771.75;5033240;28;20036;-80
2022/11/15 01:55:55;;;;;;;57.25;29.65;;;;;;;7.43;100.00;100766.69;5032866;28;20061;-80
2022/11/15 01:58:21;;;;;;;50.33;29.83;;;;;;;7.60;100.00;100776.13;5032896;28;20057;-80
2022/11/15 02:00:49;;;;;;;54.58;30.48;;;;;;;7.65;100.00;100781.81;5032486;28;20025;-81
2022/11/15 02:03:14;;;;;;;55.30;29.02;;;;;;;7.63;100.00;100759.69;5032929;28;20095;-80
2022/11/15 02:05:41;;;;;;;59.70;29.67;;;;;;;7.75;100.00;100783.00;5032581;28;20025;-80
2022/11/15 02:08:08;;;;;;;53.72;29.23;;;;;;;7.64;100.00;100758.78;5032516;28;20033;-80
2022/11/15 02:10:33;;;;;;;55.83;30.67;;;;;;;7.85;100.00;100769.69;5035111;28;20026;-80
2022/11/15 02:13:00;;;;;;;55.33;31.50;;;;;;;7.66;100.00;100728.69;5036546;28;20026;-80
2022/11/15 02:15:34;;;;;;;53.28;28.45;;;;;;;7.89;100.00;100763.50;5036484;28;20033;-80
2022/11/15 02:18:33;;;;;;;51.42;28.90;;;;;;;7.96;100.00;100762.22;5036570;28;20104;-80
2022/11/15 02:21:10;;;;;;;50.35;28.52;;;;;;;7.75;100.00;100723.06;4955981;28;20039;-80
2022/11/15 02:23:54;;;;;;;52.53;29.83;;;;;;;7.98;100.00;100750.97;4956160;29;20078;-80
2022/11/15 02:27:04;;;;;;;52.45;29.52;;;;;;;8.02;100.00;100738.78;4956094;29;20139;-80
2022/11/15 02:29:44;;;;;;;53.50;29.90;;;;;;;8.11;100.00;100751.13;4936672;29;20027;-80
2022/11/15 02:32:18;;;;;;;51.50;30.15;;;;;;;8.02;100.00;100734.47;4936889;29;20048;-80
2022/11/15 02:35:02;;;;;;;55.75;29.80;;;;;;;8.15;100.00;100750.03;4936604;29;20074;-80
2022/11/15 02:37:36;;;;;;;51.28;30.58;;;;;;;8.21;100.00;100743.75;4936737;29;20087;-80
2022/11/15 02:40:23;;;;;;;50.17;30.52;;;;;;;8.23;100.00;100747.06;4922824;29;20484;-80
2022/11/15 02:45:51;;;;;;;53.20;30.05;;;;;;;8.16;100.00;100709.72;4917950;29;20551;-80
2022/11/15 02:48:17;;;;;;;57.75;30.85;;;;;;;8.31;100.00;100732.88;4917256;29;20044;-80
2022/11/15 02:50:43;;;;;;;60.38;31.60;;;;;;;8.13;100.00;100687.56;4917154;29;20369;-80
2022/11/15 02:53:09;;;;;;;51.90;31.35;;;;;;;8.43;100.00;100723.66;4917506;29;20040;-80
2022/11/15 02:55:41;;;;;;;51.38;31.33;;;;;;;8.47;100.00;100724.34;4901564;29;20515;-80
2022/11/15 02:58:25;;;;;;;57.22;31.58;;;;;;;8.48;100.00;100723.44;4940839;29;20114;-80
2022/11/15 03:01:01;;;;;;;62.35;33.55;;;;;;;8.34;100.00;100690.69;5002721;28;20375;-80
2022/11/15 03:03:50;;;;;;;61.60;32.97;;;;;;;8.43;100.00;100697.94;5015621;28;20018;-79
2022/11/15 03:06:32;;;;;;;58.15;31.20;;;;;;;8.62;100.00;100721.72;5015520;28;20026;-80
2022/11/15 03:09:13;;;;;;;54.75;32.80;;;;;;;8.66;100.00;100717.25;5015568;28;20026;-79
2022/11/15 03:11:45;;;;;;;61.25;32.97;;;;;;;8.68;100.00;100719.75;5015572;28;20095;-79
2022/11/15 03:14:28;;;;;;;60.30;32.72;;;;;;;8.71;100.00;100715.22;5015723;28;20030;-79
2022/11/15 03:17:32;;;;;;;57.40;31.42;;;;;;;8.72;100.00;100719.47;5015600;28;20033;-79
2022/11/15 03:20:00;;;;;;;57.25;32.22;;;;;;;8.71;100.00;100717.81;4935584;28;20047;-80
2022/11/15 03:22:29;;;;;;;60.90;32.35;;;;;;;8.62;100.00;100702.88;4919988;29;20036;-80
2022/11/15 03:25:00;;;;;;;56.95;31.88;;;;;;;8.43;100.00;100681.66;4935766;29;20459;-80
2022/11/15 03:27:29;;;;;;;55.10;32.35;;;;;;;8.56;100.00;100690.38;4935566;29;20575;-80
2022/11/15 03:30:00;;;;;;;56.53;31.60;;;;;;;8.74;100.00;100715.06;4935570;29;20044;-79
2022/11/15 03:32:29;;;;;;;59.05;32.15;;;;;;;8.61;100.00;100689.19;4935636;29;20039;-79
2022/11/15 03:35:00;;;;;;;58.90;31.88;;;;;;;8.80;100.00;100725.00;4935452;29;20099;-79
2022/11/15 03:37:33;;;;;;;57.58;32.10;;;;;;;8.81;100.00;100726.66;4935388;29;20047;-79
2022/11/15 03:39:59;;;;;;;57.13;32.20;;;;;;;8.82;100.00;100724.91;4948694;29;20055;-79
2022/11/15 03:42:42;;;;;;;57.25;32.20;;;;;;;8.81;100.00;100726.66;4954497;29;20047;-79
2022/11/15 03:45:27;;;;;;;57.85;33.05;;;;;;;8.77;100.00;100712.31;4954474;29;20054;-79
2022/11/15 03:48:03;;;;;;;54.72;32.70;;;;;;;8.80;100.00;100719.84;4954598;29;20034;-80
2022/11/15 03:50:29;;;;;;;60.65;32.38;;;;;;;8.85;100.00;100725.59;4954331;29;20042;-79
2022/11/15 03:52:56;;;;;;;52.85;31.05;;;;;;;8.78;100.00;100711.41;4954663;29;20035;-80
2022/11/15 03:55:22;;;;;;;54.80;32.20;;;;;;;8.85;100.00;100710.13;4966417;28;20041;-79
2022/11/15 03:57:52;;;;;;;60.45;31.10;;;;;;;8.94;100.00;100725.94;5034361;28;20038;-80
2022/11/15 04:00:18;;;;;;;59.38;32.45;;;;;;;8.74;100.00;100691.06;5034473;28;20100;-79
2022/11/15 04:02:44;;;;;;;55.67;31.05;;;;;;;8.87;100.00;100715.19;5034414;28;20136;-79
2022/11/15 04:05:10;;;;;;;57.95;31.25;;;;;;;8.85;100.00;100719.63;5034537;28;20437;-80
2022/11/15 04:07:35;;;;;;;53.63;29.95;;;;;;;8.81;100.00;100721.50;5034168;28;20112;-79
2022/11/15 04:10:03;;;;;;;56.58;32.85;;;;;;;8.88;100.00;100729.72;5034321;28;20029;-80
2022/11/15 04:12:37;;;;;;;61.08;34.17;;;;;;;8.81;100.00;100708.63;5034107;28;20040;-80
2022/11/15 04:15:10;;;;;;;63.25;33.63;;;;;;;8.96;100.00;100724.13;5034284;28;20021;-79
2022/11/15 04:17:50;;;;;;;67.63;33.88;;;;;;;8.97;100.00;100720.66;5034267;28;20119;-79
2022/11/15 04:25:52;;;;;;;63.75;32.83;;;;;;;8.98;100.00;100717.97;5034400;28;20495;-79
2022/11/15 04:28:18;;;;;;;70.32;34.45;;;;;;;8.83;100.00;100693.94;5033917;28;20075;-80
2022/11/15 04:30:44;;;;;;;65.63;35.20;;;;;;;9.03;100.00;100717.69;5034013;28;20057;-79
2022/11/15 04:33:09;;;;;;;71.28;34.50;;;;;;;8.87;100.00;100700.56;5033573;28;20068;-79
2022/11/15 04:35:34;;;;;;;67.70;35.35;;;;;;;8.99;100.00;100721.38;5033446;28;20052;-78
2022/11/15 04:38:01;;;;;;;74.53;37.88;;;;;;;8.96;100.00;100706.94;5033615;28;20113;-79
2022/11/15 04:40:26;;;;;;;78.22;36.40;;;;;;;9.03;100.00;100717.69;5033378;28;20034;-80
2022/11/15 04:42:52;;;;;;;81.65;38.35;;;;;;;8.90;100.00;100697.81;5033654;28;20128;-79
2022/11/15 04:45:17;;;;;;;65.05;35.05;;;;;;;8.93;100.00;100709.66;5033757;28;20528;-80
2022/11/15 04:47:44;;;;;;;69.72;36.72;;;;;;;9.02;100.00;100726.34;5033583;28;20553;-79
2022/11/15 04:50:13;;;;;;;70.75;36.33;;;;;;;8.89;100.00;100696.16;5033200;28;20117;-80
2022/11/15 04:52:39;;;;;;;77.93;37.15;;;;;;;8.95;100.00;100699.28;5033601;28;20373;-79
2022/11/15 04:55:05;;;;;;;78.38;35.70;;;;;;;9.08;100.00;100726.00;5033447;28;20032;-79
2022/11/15 04:57:30;;;;;;;66.30;35.22;;;;;;;9.05;100.00;100713.31;5033627;28;20029;-79
2022/11/15 04:59:55;;;;;;;77.55;37.20;;;;;;;8.99;100.00;100703.34;5033488;28;20028;-79
2022/11/15 05:02:21;;;;;;;72.65;36.95;;;;;;;9.13;100.00;100721.38;5033399;28;20068;-79
2022/11/15 05:04:46;;;;;;;64.22;33.38;;;;;;;9.11;100.00;100724.06;5033066;28;20327;-79
2022/11/15 05:07:11;;;;;;;63.60;34.70;;;;;;;8.83;100.00;100678.47;5015241;28;20091;-79
2022/11/15 05:09:37;;;;;;;64.30;35.25;;;;;;;8.95;100.00;100687.25;5033241;28;20474;-79
2022/11/15 05:12:02;;;;;;;69.07;34.20;;;;;;;9.10;100.00;100716.44;5015626;28;20053;-79
2022/11/15 05:14:27;;;;;;;70.90;34.75;;;;;;;8.97;100.00;100689.75;5033431;28;20406;-79
2022/11/15 05:16:53;;;;;;;63.22;32.33;;;;;;;9.11;100.00;100716.34;5033359;28;20053;-80
2022/11/15 05:19:18;;;;;;;67.43;33.70;;;;;;;9.12;100.00;100715.41;5033065;28;20496;-79
2022/11/15 05:21:43;;;;;;;64.43;33.40;;;;;;;9.13;100.00;100714.50;5032827;28;20072;-79
2022/11/15 05:24:10;;;;;;;66.05;33.67;;;;;;;9.13;100.00;100713.66;5033209;28;20022;-79
2022/11/15 05:26:35;;;;;;;66.22;34.65;;;;;;;9.12;100.00;100707.69;5033024;28;20055;-78
2022/11/15 05:29:00;;;;;;;66.68;33.55;;;;;;;9.01;100.00;100692.03;5033256;28;20022;-78
2022/11/15 05:31:27;;;;;;;66.50;32.67;;;;;;;9.17;100.00;100704.84;5032888;28;20087;-79
2022/11/15 05:33:54;;;;;;;61.58;33.75;;;;;;;9.02;100.00;100682.56;5033010;28;20500;-79
2022/11/15 05:36:35;;;;;;;56.97;32.20;;;;;;;9.18;100.00;100706.50;5032910;28;20032;-79
2022/11/15 05:39:02;;;;;;;63.42;33.35;;;;;;;9.20;100.00;100705.50;5032419;28;20615;-79
2022/11/15 05:41:40;;;;;;;62.72;33.75;;;;;;;9.20;100.00;100704.66;5032652;28;20038;-79
2022/11/15 05:44:09;;;;;;;67.65;32.75;;;;;;;9.22;100.00;100704.56;5033139;28;20116;-78
2022/11/15 05:46:37;;;;;;;67.32;33.65;;;;;;;9.22;100.00;100700.25;5036877;28;20032;-78
2022/11/15 05:49:07;;;;;;;63.00;34.30;;;;;;;9.23;100.00;100699.31;5036907;28;20041;-78
2022/11/15 05:51:32;;;;;;;63.72;33.33;;;;;;;9.23;100.00;100701.06;5037019;28;20104;-79
2022/11/15 05:53:58;;;;;;;65.22;31.73;;;;;;;9.22;100.00;100696.84;5036881;28;20044;-79
2022/11/15 05:56:25;;;;;;;63.67;33.20;;;;;;;9.03;100.00;100667.00;5036836;28;20357;-78
2022/11/15 05:58:53;;;;;;;59.45;33.33;;;;;;;9.17;100.00;100704.84;5036867;28;20334;-79
2022/11/15 06:01:19;;;;;;;54.30;31.40;;;;;;;9.08;100.00;100698.50;5036559;28;20030;-78
2022/11/15 06:03:44;;;;;;;57.80;31.35;;;;;;;9.10;100.00;100706.13;5036617;28;20091;-79
2022/11/15 06:06:09;;;;;;;61.10;32.03;;;;;;;9.05;100.00;100701.25;5018839;28;20029;-81
2022/11/15 06:08:35;;;;;;;59.03;31.33;;;;;;;9.15;100.00;100720.41;5036467;28;20057;-80
2022/11/15 06:11:05;;;;;;;58.42;30.52;;;;;;;8.96;100.00;100690.66;5036691;28;20025;-79
2022/11/15 06:13:30;;;;;;;61.17;33.03;;;;;;;9.20;100.00;100722.69;5036526;28;20074;-79
2022/11/15 06:15:56;;;;;;;62.85;31.33;;;;;;;9.08;100.00;100695.91;5036453;28;20435;-79
2022/11/15 06:18:22;;;;;;;57.50;31.70;;;;;;;9.13;100.00;100698.22;5036400;28;20025;-80
2022/11/15 06:20:47;;;;;;;60.08;30.83;;;;;;;9.24;100.00;100713.84;5036403;28;20039;-80
2022/11/15 06:23:15;;;;;;;59.25;31.35;;;;;;;9.24;100.00;100715.59;5036013;28;20036;-79
2022/11/15 06:25:41;;;;;;;56.40;30.50;;;;;;;9.25;100.00;100725.84;5036392;28;20025;-80
2022/11/15 06:28:09;;;;;;;56.78;30.85;;;;;;;8.96;100.00;100688.09;5018541;28;20032;-79
2022/11/15 06:30:35;;;;;;;58.47;29.85;;;;;;;9.28;100.00;100735.13;5036112;28;20385;-79
2022/11/15 06:33:02;;;;;;;61.47;30.67;;;;;;;9.29;100.00;100736.78;5036092;28;20025;-79
2022/11/15 06:35:28;;;;;;;58.20;31.33;;;;;;;9.32;100.00;100737.44;5035812;28;20022;-80
2022/11/15 06:37:56;;;;;;;59.08;30.75;;;;;;;9.31;100.00;100742.69;5036183;28;20021;-80
2022/11/15 06:40:21;;;;;;;54.35;30.85;;;;;;;8.94;100.00;100671.88;5035654;28;20034;-79
2022/11/15 06:42:47;;;;;;;67.40;32.90;;;;;;;9.33;100.00;100728.78;5035806;28;20053;-79
2022/11/15 06:45:12;;;;;;;62.08;31.50;;;;;;;9.23;100.00;100713.94;5036008;28;20052;-80
2022/11/15 06:47:47;;;;;;;53.90;30.20;;;;;;;9.08;100.00;100700.25;5035799;28;20112;-79
2022/11/15 06:50:13;;;;;;;57.78;30.25;;;;;;;9.33;100.00;100744.22;5035787;28;20029;-80
2022/11/15 06:52:38;;;;;;;60.03;30.60;;;;;;;9.33;100.00;100751.97;5035748;28;20029;-79
2022/11/15 06:55:04;;;;;;;56.28;29.95;;;;;;;9.33;100.00;100746.81;5035077;28;20428;-80
2022/11/15 06:57:29;;;;;;;54.63;30.23;;;;;;;9.33;100.00;100751.13;5017661;28;20049;-80
2022/11/15 06:59:54;;;;;;;53.75;29.52;;;;;;;9.30;100.00;100759.06;5035673;28;20067;-80
2022/11/15 07:02:20;;;;;;;53.92;28.23;;;;;;;9.16;100.00;100736.69;5035558;28;20088;-80
2022/11/15 07:04:45;;;;;;;53.85;29.35;;;;;;;9.25;100.00;100751.63;5035369;28;20049;-79
2022/11/15 07:07:10;;;;;;;55.33;29.08;;;;;;;9.27;100.00;100760.06;5035589;28;20369;-79
2022/11/15 07:09:36;;;;;;;50.28;28.75;;;;;;;9.26;100.00;100755.84;5017054;28;20029;-79
2022/11/15 07:12:01;;;;;;;56.53;27.77;;;;;;;9.25;100.00;100753.38;5035413;28;20025;-79
2022/11/15 07:14:26;;;;;;;51.13;27.70;;;;;;;9.18;100.00;100748.56;5035546;28;20021;-80
2022/11/15 07:16:51;;;;;;;45.95;26.55;;;;;;;9.20;100.00;100754.44;5017422;28;20065;-80
2022/11/15 07:19:17;;;;;;;48.15;26.38;;;;;;;9.17;100.00;100752.06;5035314;28;20478;-79
2022/11/15 07:21:42;;;;;;;53.00;25.35;;;;;;;9.14;100.00;100747.09;5035193;28;20041;-79
2022/11/15 07:24:07;;;;;;;44.25;24.20;;;;;;;9.19;100.00;100759.69;5035127;28;20025;-80
2022/11/15 07:26:33;;;;;;;42.60;25.40;;;;;;;9.26;100.00;100767.91;5035021;28;20489;-78
2022/11/15 07:28:58;;;;;;;43.33;25.00;;;;;;;9.26;100.00;100767.91;5035042;28;20115;-79
2022/11/15 07:31:23;;;;;;;45.20;24.92;;;;;;;9.25;100.00;100764.50;5035050;28;20030;-79
2022/11/15 07:33:48;;;;;;;43.83;24.52;;;;;;;9.24;100.00;100762.81;5034962;28;20119;-77
2022/11/15 07:36:14;;;;;;;40.15;23.30;;;;;;;9.18;100.00;100751.13;5034895;28;20067;-79
2022/11/15 07:38:39;;;;;;;44.42;23.33;;;;;;;9.27;100.00;100764.41;5035068;28;20025;-79
2022/11/15 07:41:05;;;;;;;41.25;23.85;;;;;;;9.29;100.00;100763.38;5034534;28;20587;-79
2022/11/15 07:43:33;;;;;;;41.28;24.13;;;;;;;9.32;100.00;100762.38;5034939;28;20055;-79
2022/11/15 07:46:18;;;;;;;42.63;24.48;;;;;;;9.27;100.00;100744.63;5034806;28;20025;-79
2022/11/15 07:48:43;;;;;;;44.45;23.85;;;;;;;9.39;100.00;100749.03;5041020;23;20054;-78
2022/11/15 07:51:16;;;;;;;42.25;23.02;;;;;;;9.23;100.00;100716.53;5034641;28;20047;-79
2022/11/15 07:53:43;;;;;;;40.22;22.42;;;;;;;9.39;100.00;100743.88;5034844;28;20032;-79
2022/11/15 07:56:09;;;;;;;39.33;22.67;;;;;;;9.30;100.00;100731.53;5034094;28;20079;-79
2022/11/15 07:58:34;;;;;;;37.63;21.02;;;;;;;9.40;100.00;100753.28;5034587;28;20030;-79
2022/11/15 08:01:04;;;;;;;32.53;20.25;;;;;;;9.27;100.00;100716.28;5034513;28;20045;-79
2022/11/15 08:03:29;;;;;;;39.10;20.90;;;;;;;9.33;100.00;100725.38;5034452;28;20063;-79
2022/11/15 08:05:55;;;;;;;37.53;20.83;;;;;;;9.18;100.00;100696.19;5034363;28;20463;-79
2022/11/15 08:08:20;;;;;;;35.17;20.92;;;;;;;9.49;100.00;100741.59;5033304;28;20080;-80
2022/11/15 08:10:45;;;;;;;35.28;20.40;;;;;;;9.53;100.00;100752.53;5199871;23;20132;-80
2022/11/15 08:13:12;;;;;;;37.03;20.50;;;;;;;9.59;100.00;100759.91;5034030;28;20152;-78
2022/11/15 08:15:37;;;;;;;28.38;18.33;;;;;;;9.65;100.00;100769.88;5033481;28;20033;-80
2022/11/15 08:18:08;;;;;;;31.20;19.70;;;;;;;9.60;100.00;100764.16;5034472;28;20033;-79
2022/11/15 08:20:33;;;;;;;37.50;19.37;;;;;;;9.54;100.00;100746.47;5025023;28;20026;-76
2022/11/15 08:23:01;;;;;;;35.47;20.65;;;;;;;9.60;100.00;100756.41;5014201;28;20476;-76
2022/11/15 08:25:28;;;;;;;33.85;20.20;;;;;;;9.61;100.00;100745.16;5013998;28;20026;-79
2022/11/15 08:27:55;;;;;;;32.55;17.88;;;;;;;9.82;100.00;100768.84;5014161;28;20417;-80
2022/11/15 08:30:21;;;;;;;30.38;18.05;;;;;;;9.88;100.00;100766.72;4996765;28;20366;-78
2022/11/15 08:32:48;;;;;;;31.45;18.13;;;;;;;9.77;100.00;100736.44;5014190;28;20030;-79
2022/11/15 08:35:13;;;;;;;27.25;16.67;;;;;;;9.92;100.00;100749.28;5013950;28;20052;-77
2022/11/15 08:37:39;;;;;;;33.30;17.10;;;;;;;9.92;100.00;100746.72;5014159;28;20104;-77
2022/11/15 08:40:05;;;;;;;29.80;16.20;;;;;;;9.92;100.00;100757.03;5014332;28;20034;-79
2022/11/15 08:42:30;;;;;;;26.17;15.57;;;;;;;9.86;100.00;100750.50;5013665;28;20092;-85
2022/11/15 08:44:56;;;;;;;22.35;14.40;;;;;;;9.75;100.00;100732.28;5014305;28;20531;-82
2022/11/15 08:47:21;;;;;;;27.35;15.98;;;;;;;9.80;100.00;100750.88;5014131;28;20030;-80
2022/11/15 08:49:47;;;;;;;23.13;14.88;;;;;;;9.51;100.00;100692.50;5013672;28;20105;-80
2022/11/15 08:52:13;;;;;;;23.30;14.70;;;;;;;9.56;100.00;100705.97;5014244;28;20029;-80
2022/11/15 08:54:39;;;;;;;24.55;14.95;;;;;;;9.54;100.00;100707.78;5013659;28;20562;-81
2022/11/15 08:57:04;;;;;;;22.40;14.35;;;;;;;9.69;100.00;100736.06;5013634;28;20116;-80
2022/11/15 08:59:29;;;;;;;23.83;14.15;;;;;;;9.44;100.00;100697.22;5013718;28;20037;-81
2022/11/15 09:01:55;;;;;;;23.80;14.13;;;;;;;9.38;100.00;100693.25;5013399;28;20049;-77
2022/11/15 09:04:20;;;;;;;20.70;13.65;;;;;;;9.69;100.00;100730.06;4994676;28;20040;-79
2022/11/15 09:06:45;;;;;;;23.08;13.73;;;;;;;9.68;100.00;100729.25;5013160;28;20081;-79
2022/11/15 09:09:11;;;;;;;20.98;14.30;;;;;;;9.51;100.00;100684.78;5013458;28;20026;-80
2022/11/15 09:11:36;;;;;;;25.58;14.55;;;;;;;9.70;100.00;100713.69;5013172;28;20049;-79
2022/11/15 09:14:02;;;;;;;21.08;13.07;;;;;;;9.78;100.00;100724.34;5013547;28;20030;-79
2022/11/15 09:16:27;;;;;;;19.70;12.60;;;;;;;9.58;100.00;100686.91;5012939;28;20071;-79
2022/11/15 09:18:53;;;;;;;19.58;11.82;;;;;;;9.43;100.00;100667.19;5013473;28;20108;-78
2022/11/15 09:21:21;;;;;;;19.27;11.13;;;;;;;9.46;100.00;100673.00;5013250;28;20458;-82
2022/11/15 09:23:50;;;;;;;16.17;10.75;;;;;;;9.67;100.00;100699.22;5013832;28;20030;-79
2022/11/15 09:26:24;;;;;;;15.38;9.70;;;;;;;9.25;100.00;100634.84;5023200;23;20046;-83
2022/11/15 09:28:49;;;;;;;16.58;9.70;;;;;;;9.73;100.00;100698.00;5033082;28;20098;-80
2022/11/15 09:31:15;;;;;;;13.88;9.00;;;;;;;9.75;100.00;100694.44;5032872;28;20473;-82
2022/11/15 09:33:46;;;;;;;16.10;9.77;;;;;;;9.83;100.00;100698.28;5032953;28;20029;-82
2022/11/15 09:36:12;;;;;;;11.95;7.68;;;;;;;9.93;100.00;100700.22;5032930;28;20018;-79
2022/11/15 09:38:38;;;;;;;15.13;8.48;;;;;;;9.87;100.00;100671.38;5033245;28;20021;-82
2022/11/15 09:41:12;;;;;;;10.73;7.45;;;;;;;10.05;100.00;100698.63;5033038;28;20460;-82
2022/11/15 09:44:09;;;;;;;12.90;7.95;;;;;;;10.20;100.00;100691.66;5032375;28;20549;-84
2022/11/15 09:46:50;;;;;;;13.70;7.22;;;;;;;10.36;100.00;100700.09;5032934;28;20029;-82
2022/11/15 09:49:17;;;;;;;10.73;6.75;;;;;;;10.33;100.00;100697.72;5031711;28;20029;-81
2022/11/15 09:51:48;;;;;;;14.68;6.88;;;;;;;10.31;100.00;100697.81;5033366;28;20026;-80
2022/11/15 09:54:13;;;;;;;12.65;6.18;;;;;;;10.33;100.00;100693.41;5032983;28;20032;-82
2022/11/15 09:56:42;;;;;;;10.82;6.15;;;;;;;10.11;100.00;100648.34;5039883;23;20140;-82
2022/11/15 09:59:31;;;;;;;10.48;6.00;;;;;;;10.41;100.00;100692.06;5032350;28;20100;-80
2022/11/15 10:02:13;;;;;;;10.77;5.72;;;;;;;10.38;100.00;100690.50;5032946;28;20041;-84
2022/11/15 10:04:40;;;;;;;8.65;4.97;;;;;;;10.22;100.00;100664.84;5032905;28;20030;-86
2022/11/15 10:07:26;;;;;;;11.57;5.63;;;;;;;10.10;100.00;100639.78;5032575;28;20477;-79
2022/11/15 10:09:57;;;;;;;8.27;4.40;;;;;;;10.21;100.00;100665.72;5032912;28;20433;-81
2022/11/15 10:12:22;;;;;;;11.43;4.60;;;;;;;10.24;100.00;100680.25;5032494;28;20049;-79
2022/11/15 10:14:51;;;;;;;10.35;4.28;;;;;;;10.20;100.00;100676.16;5032614;28;20057;-78
2022/11/15 10:17:35;;;;;;;8.02;3.70;;;;;;;10.17;100.00;100676.38;5032809;28;20369;-79
2022/11/15 10:20:27;;;;;;;7.57;3.20;;;;;;;10.15;100.00;100671.31;5032470;28;20046;-79
2022/11/15 10:23:06;;;;;;;7.82;2.95;;;;;;;9.99;100.00;100643.06;5079927;23;20133;-80
2022/11/15 10:25:34;;;;;;;5.53;2.80;;;;;;;10.17;100.00;100672.03;5012790;28;20074;-80
2022/11/15 10:28:15;;;;;;;4.90;2.45;;;;;;;10.17;99.64;100674.59;5012348;28;20018;-80
2022/11/15 10:30:48;;;;;;;6.05;2.20;;;;;;;10.13;96.61;100665.41;5013699;28;20021;-83
2022/11/15 10:33:14;;;;;;;7.78;2.00;;;;;;;10.16;96.61;100665.22;5016486;28;20053;-81
2022/11/15 10:35:39;;;;;;;5.28;2.42;;;;;;;9.98;94.27;100635.41;5016478;28;20030;-82
2022/11/15 10:38:07;;;;;;;5.10;2.10;;;;;;;9.94;95.14;100639.13;5016419;28;20145;-81
2022/11/15 10:40:33;;;;;;;5.53;1.90;;;;;;;10.01;94.12;100648.94;5016198;28;20018;-80
2022/11/15 10:43:10;;;;;;;5.88;2.20;;;;;;;10.05;94.47;100640.09;5016055;28;20104;-80
2022/11/15 10:45:36;;;;;;;6.32;2.38;;;;;;;10.06;93.03;100638.34;5016421;28;20087;-80
2022/11/15 10:48:13;;;;;;;8.05;1.90;;;;;;;10.09;92.84;100632.16;5016403;28;20429;-83
2022/11/15 10:50:41;;;;;;;5.90;2.35;;;;;;;9.98;91.94;100615.63;5016240;28;20532;-83
2022/11/15 10:53:26;;;;;;;3.92;1.52;;;;;;;10.18;92.01;100631.56;5016035;28;20029;-81
2022/11/15 10:55:54;;;;;;;5.35;1.90;;;;;;;9.90;90.85;100573.16;5015779;28;20030;-81
2022/11/15 10:58:22;;;;;;;4.78;1.40;;;;;;;10.14;90.14;100606.91;5015845;28;20474;-80
2022/11/15 11:00:47;;;;;;;5.55;1.80;;;;;;;10.29;88.11;100629.16;5030652;23;20080;-78
2022/11/15 11:03:59;;;;;;;5.97;1.60;;;;;;;10.20;89.21;100597.00;5035695;28;20053;-80
2022/11/15 11:06:24;;;;;;;9.57;2.05;;;;;;;10.20;87.86;100591.00;4955329;28;20168;-82
2022/11/15 11:09:01;;;;;;;6.70;1.88;;;;;;;10.21;89.28;100584.91;4955098;28;20183;-79
2022/11/15 11:11:48;;;;;;;7.50;1.88;;;;;;;10.39;88.27;100601.81;4955364;29;20031;-80
2022/11/15 11:14:27;;;;;;;7.85;2.30;;;;;;;10.21;86.99;100580.56;4954904;29;20031;-81
2022/11/15 11:17:17;;;;;;;7.00;1.90;;;;;;;10.38;86.58;100602.75;4955249;29;20046;-79
2022/11/15 11:19:54;;;;;;;5.90;1.60;;;;;;;10.39;86.18;100599.22;4955329;29;20101;-82
2022/11/15 11:22:46;;;;;;;7.97;2.30;;;;;;;10.39;86.85;100598.41;4955100;29;20054;-79
2022/11/15 11:25:26;;;;;;;5.78;1.83;;;;;;;10.36;86.14;100594.28;4955254;28;20030;-83
2022/11/15 11:28:02;;;;;;;7.20;2.05;;;;;;;10.24;88.68;100571.88;4955779;29;20118;-84
2022/11/15 11:30:48;;;;;;;6.95;2.20;;;;;;;10.31;88.78;100589.41;4954604;29;20131;-79